Time;durP1;ratioP1;P1;durP2;ratioP2;P2;SDS_P1;SDS_P2;PMS_P1;PMS_P2;Temp;Humidity;BMP_temperature;BMP_pressure;BME280_temperature;BME280_humidity;BME280_pressure;Samples;Min_cycle;Max_cycle;Signal;HPM_P1;HPM_P2
2021/07/12 00:01:42;;;;;;;7.82;7.10;;;19.60;76.30;;;;;;5054663;28;20017;-79
2021/07/12 00:04:08;;;;;;;7.78;7.05;;;19.60;76.30;;;;;;5054738;28;20383;-79
2021/07/12 00:06:33;;;;;;;7.50;6.63;;;19.60;76.20;;;;;;5054688;28;20492;-79
2021/07/12 00:09:00;;;;;;;7.80;7.00;;;19.60;76.20;;;;;;5057444;28;20547;-79
2021/07/12 00:11:27;;;;;;;8.35;7.53;;;19.60;76.20;;;;;;5058827;28;20079;-79
2021/07/12 00:13:52;;;;;;;7.47;6.78;;;19.60;76.20;;;;;;5076723;28;20020;-79
2021/07/12 00:16:18;;;;;;;8.07;7.05;;;19.60;76.30;;;;;;5058842;28;20078;-80
2021/07/12 00:18:43;;;;;;;8.02;7.20;;;19.50;76.30;;;;;;5058882;28;20552;-79
2021/07/12 00:21:09;;;;;;;8.07;7.10;;;19.50;76.30;;;;;;5058802;28;20032;-78
2021/07/12 00:23:35;;;;;;;7.97;6.82;;;19.50;76.30;;;;;;5058369;28;20051;-78
2021/07/12 00:26:03;;;;;;;9.93;6.88;;;19.50;76.30;;;;;;5058472;28;20025;-78
2021/07/12 00:28:29;;;;;;;7.40;6.70;;;19.50;76.30;;;;;;5058577;28;20025;-78
2021/07/12 00:30:55;;;;;;;8.35;6.55;;;19.40;76.20;;;;;;5058598;28;20024;-78
2021/07/12 00:33:20;;;;;;;7.70;6.90;;;19.40;76.30;;;;;;5058213;28;20128;-78
2021/07/12 00:35:46;;;;;;;7.32;6.63;;;19.40;76.30;;;;;;5058279;28;20016;-78
2021/07/12 00:38:11;;;;;;;8.07;7.28;;;19.40;76.30;;;;;;5076457;28;20017;-78
2021/07/12 00:40:37;;;;;;;7.15;6.45;;;19.40;76.30;;;;;;5076321;28;20032;-78
2021/07/12 00:43:05;;;;;;;7.30;6.60;;;19.40;76.30;;;;;;5076287;28;20020;-78
2021/07/12 00:45:32;;;;;;;7.15;6.45;;;19.40;76.30;;;;;;5058181;28;20111;-78
2021/07/12 00:47:58;;;;;;;7.28;6.57;;;19.40;76.30;;;;;;5058284;28;20032;-79
2021/07/12 00:50:26;;;;;;;7.30;6.63;;;19.40;76.20;;;;;;5058432;28;20060;-78
2021/07/12 00:52:53;;;;;;;7.10;6.50;;;19.50;76.30;;;;;;5055365;28;20029;-79
2021/07/12 00:55:30;;;;;;;7.78;6.90;;;19.50;76.90;;;;;;5057894;28;20116;-79
2021/07/12 00:57:56;;;;;;;7.25;6.53;;;19.50;76.30;;;;;;5055696;28;20124;-79
2021/07/12 01:00:24;;;;;;;7.18;6.47;;;19.50;76.20;;;;;;5058099;28;20016;-79
2021/07/12 01:02:51;;;;;;;7.10;6.40;;;19.50;76.30;;;;;;5057874;28;20127;-78
2021/07/12 01:05:19;;;;;;;7.40;6.70;;;19.40;76.20;;;;;;5076075;28;20084;-78
2021/07/12 01:07:45;;;;;;;7.63;6.72;;;19.40;76.30;;;;;;5057800;28;20047;-78
2021/07/12 01:10:13;;;;;;;8.27;7.13;;;19.50;76.30;;;;;;5055046;28;20655;-78
2021/07/12 01:16:19;;;;;;;8.90;7.63;;;19.40;76.30;;;;;;5075822;28;20554;-79
2021/07/12 01:19:15;;;;;;;9.15;7.60;;;19.30;76.30;;;;;;5057986;28;20020;-78
2021/07/12 01:22:18;;;;;;;8.63;7.78;;;19.40;76.50;;;;;;5056980;28;20032;-78
2021/07/12 01:25:39;;;;;;;7.70;6.90;;;19.30;76.50;;;;;;5037434;28;20029;-78
2021/07/12 01:28:39;;;;;;;8.50;7.57;;;19.30;76.50;;;;;;5037783;28;20163;-78
2021/07/12 01:31:37;;;;;;;8.75;7.72;;;19.30;76.50;;;;;;5037385;28;20036;-78
2021/07/12 01:34:29;;;;;;;8.73;7.82;;;19.30;76.50;;;;;;5000443;28;20049;-78
2021/07/12 01:37:00;;;;;;;8.85;7.93;;;19.30;76.70;;;;;;5037377;28;20033;-79
2021/07/12 01:39:41;;;;;;;8.57;7.78;;;19.20;76.60;;;;;;5037502;28;20106;-79
2021/07/12 01:42:12;;;;;;;9.48;8.40;;;19.20;76.80;;;;;;5037360;28;20021;-78
2021/07/12 01:45:00;;;;;;;8.27;7.43;;;19.20;76.80;;;;;;5037239;28;20091;-78
2021/07/12 01:47:51;;;;;;;8.82;8.00;;;19.20;76.90;;;;;;5037215;28;20087;-78
2021/07/12 01:50:31;;;;;;;9.15;8.20;;;19.20;76.90;;;;;;5037137;28;20021;-79
2021/07/12 01:53:28;;;;;;;8.68;7.78;;;19.10;76.90;;;;;;5054844;28;20021;-79
2021/07/12 01:56:31;;;;;;;8.32;7.47;;;19.20;77.00;;;;;;5037255;28;20017;-78
2021/07/12 01:59:17;;;;;;;8.50;7.35;;;19.20;77.00;;;;;;5033828;28;20033;-78
2021/07/12 02:01:45;;;;;;;7.85;7.05;;;19.10;77.00;;;;;;5037205;28;20021;-78
2021/07/12 02:04:14;;;;;;;8.85;7.97;;;19.10;77.10;;;;;;5054747;28;20365;-77
2021/07/12 02:06:41;;;;;;;9.30;8.30;;;19.00;77.10;;;;;;5054659;28;20028;-78
2021/07/12 02:09:09;;;;;;;9.73;8.07;;;19.00;77.90;;;;;;5036833;28;20112;-78
2021/07/12 02:11:38;;;;;;;8.68;7.63;;;19.00;77.40;;;;;;5054609;28;20021;-78
2021/07/12 02:14:05;;;;;;;9.90;8.65;;;18.90;77.40;;;;;;5036508;28;20132;-78
2021/07/12 02:16:32;;;;;;;8.85;7.95;;;19.00;77.40;;;;;;5036734;28;20025;-77
2021/07/12 02:18:58;;;;;;;9.55;8.55;;;19.00;77.50;;;;;;5036587;28;20032;-78
2021/07/12 02:21:24;;;;;;;9.40;8.40;;;19.00;77.40;;;;;;5036605;28;20052;-78
2021/07/12 02:23:51;;;;;;;9.50;8.02;;;19.00;77.50;;;;;;5054240;28;20082;-78
2021/07/12 02:26:18;;;;;;;9.20;8.23;;;19.00;77.60;;;;;;5056282;28;20027;-78
2021/07/12 02:28:46;;;;;;;9.80;8.80;;;19.00;77.60;;;;;;5056388;28;20025;-78
2021/07/12 02:31:14;;;;;;;9.27;8.38;;;19.00;77.60;;;;;;5056111;28;20025;-78
2021/07/12 02:33:41;;;;;;;9.38;8.48;;;18.90;77.60;;;;;;5056200;28;20032;-78
2021/07/12 02:36:07;;;;;;;10.43;8.02;;;18.90;77.60;;;;;;5055948;28;20059;-78
2021/07/12 02:38:37;;;;;;;9.40;8.20;;;18.90;77.70;;;;;;5056011;28;20048;-78
2021/07/12 02:41:04;;;;;;;10.40;8.90;;;18.80;77.80;;;;;;5056058;28;20021;-78
2021/07/12 02:43:31;;;;;;;9.63;8.50;;;18.80;77.80;;;;;;5055966;28;20071;-77
2021/07/12 02:45:58;;;;;;;9.15;8.25;;;18.80;77.90;;;;;;5056110;28;20025;-78
2021/07/12 02:48:23;;;;;;;10.23;8.90;;;18.80;78.00;;;;;;5055876;28;20021;-77
2021/07/12 02:50:52;;;;;;;9.90;8.90;;;18.80;78.00;;;;;;5055946;28;20035;-77
2021/07/12 02:53:22;;;;;;;8.77;7.88;;;18.80;78.10;;;;;;5055763;28;20017;-77
2021/07/12 02:55:48;;;;;;;8.60;7.70;;;18.80;78.10;;;;;;5055655;28;20111;-77
2021/07/12 02:58:14;;;;;;;9.45;8.43;;;18.70;78.00;;;;;;5055615;28;20052;-78
2021/07/12 03:00:40;;;;;;;8.85;7.95;;;18.70;78.00;;;;;;5055776;28;20451;-78
2021/07/12 03:03:05;;;;;;;8.57;7.72;;;18.70;78.20;;;;;;5051449;28;20029;-78
2021/07/12 03:05:32;;;;;;;8.30;7.50;;;18.60;78.20;;;;;;5034725;28;20094;-77
2021/07/12 03:08:28;;;;;;;8.93;8.02;;;18.60;78.30;;;;;;5034792;28;20061;-77
2021/07/12 03:10:59;;;;;;;8.15;7.35;;;18.60;78.50;;;;;;5051337;28;20029;-77
2021/07/12 03:13:38;;;;;;;7.95;7.15;;;18.50;78.40;;;;;;5051325;28;20123;-77
2021/07/12 03:16:05;;;;;;;8.95;8.05;;;18.50;78.40;;;;;;5034551;28;20056;-77
2021/07/12 03:18:38;;;;;;;8.43;7.35;;;18.50;78.40;;;;;;5034539;28;20029;-78
2021/07/12 03:21:05;;;;;;;7.63;6.90;;;18.50;78.50;;;;;;5051141;28;20021;-78
2021/07/12 03:23:37;;;;;;;11.27;8.68;;;18.50;78.50;;;;;;5051300;28;20540;-77
2021/07/12 03:26:04;;;;;;;10.40;8.93;;;18.50;78.60;;;;;;5034798;28;20058;-76
2021/07/12 03:28:31;;;;;;;8.32;7.50;;;18.40;78.60;;;;;;5034503;28;20132;-77
2021/07/12 03:30:58;;;;;;;10.45;8.70;;;18.40;78.70;;;;;;5034285;28;20029;-76
2021/07/12 03:33:26;;;;;;;10.10;7.82;;;18.40;78.90;;;;;;5054810;28;20451;-77
2021/07/12 03:35:54;;;;;;;9.77;8.77;;;18.30;78.90;;;;;;5055343;28;20021;-77
2021/07/12 03:38:22;;;;;;;9.88;8.32;;;18.30;79.00;;;;;;5055152;28;20499;-77
2021/07/12 03:40:49;;;;;;;9.05;8.10;;;18.30;79.10;;;;;;5073352;28;20103;-77
2021/07/12 03:43:16;;;;;;;9.85;8.73;;;18.30;79.10;;;;;;5072688;28;20035;-77
2021/07/12 03:45:52;;;;;;;9.60;8.60;;;18.30;79.10;;;;;;5073068;28;20079;-77
2021/07/12 03:48:17;;;;;;;9.43;8.43;;;18.30;79.10;;;;;;5054943;28;20043;-77
2021/07/12 03:50:43;;;;;;;9.90;8.90;;;18.40;79.10;;;;;;5054755;28;20029;-77
2021/07/12 03:53:08;;;;;;;9.65;8.65;;;18.40;79.20;;;;;;5054811;28;20027;-78
2021/07/12 03:55:34;;;;;;;11.50;10.25;;;18.40;79.10;;;;;;5054809;28;20090;-78
2021/07/12 03:58:00;;;;;;;10.23;9.18;;;18.40;79.10;;;;;;5054872;28;20387;-78
2021/07/12 04:00:27;;;;;;;10.75;9.65;;;18.40;79.10;;;;;;5054719;28;20013;-78
2021/07/12 04:02:53;;;;;;;9.90;8.82;;;18.40;79.20;;;;;;5054810;28;20035;-77
2021/07/12 04:05:23;;;;;;;10.95;9.85;;;18.40;79.30;;;;;;5054774;28;20021;-77
2021/07/12 04:07:49;;;;;;;10.10;9.02;;;18.50;79.40;;;;;;5055169;28;20055;-77
2021/07/12 04:10:17;;;;;;;11.05;9.80;;;18.40;79.40;;;;;;5054606;28;20053;-77
2021/07/12 04:12:43;;;;;;;9.45;8.50;;;18.40;79.40;;;;;;5072661;28;20017;-78
2021/07/12 04:15:10;;;;;;;9.65;8.65;;;18.40;79.40;;;;;;5072675;28;20020;-77
2021/07/12 04:17:37;;;;;;;9.32;8.10;;;18.50;79.50;;;;;;5054718;28;20079;-77
2021/07/12 04:20:04;;;;;;;10.70;9.60;;;18.50;79.50;;;;;;5054545;28;20116;-77
2021/07/12 04:22:29;;;;;;;10.02;8.77;;;18.50;79.50;;;;;;5054541;28;20512;-77
2021/07/12 04:24:55;;;;;;;11.30;10.07;;;18.50;79.50;;;;;;5054503;28;20017;-77
2021/07/12 04:27:21;;;;;;;10.52;9.50;;;18.60;79.50;;;;;;5054531;28;20017;-77
2021/07/12 04:29:46;;;;;;;10.77;9.68;;;18.60;79.60;;;;;;5054570;28;20388;-77
2021/07/12 04:32:12;;;;;;;10.93;9.82;;;18.60;79.50;;;;;;5072548;28;20062;-77
2021/07/12 04:34:38;;;;;;;10.90;9.82;;;18.70;79.60;;;;;;5054653;28;20078;-78
2021/07/12 04:37:04;;;;;;;12.88;9.93;;;18.70;79.50;;;;;;5054483;28;20016;-78
2021/07/12 04:39:30;;;;;;;11.52;10.38;;;18.80;79.50;;;;;;5054528;28;20024;-78
2021/07/12 04:41:59;;;;;;;11.60;10.40;;;18.80;79.50;;;;;;5072549;28;20484;-78
2021/07/12 04:44:24;;;;;;;10.68;9.05;;;18.90;79.50;;;;;;5054579;28;20032;-77
2021/07/12 04:46:50;;;;;;;11.18;10.07;;;18.90;79.40;;;;;;5072253;28;20028;-78
2021/07/12 04:49:16;;;;;;;10.55;9.30;;;19.00;79.40;;;;;;5072330;28;20380;-77
2021/07/12 04:51:43;;;;;;;10.27;9.27;;;19.10;79.40;;;;;;5054606;28;20029;-77
2021/07/12 04:54:09;;;;;;;10.63;9.52;;;19.10;79.30;;;;;;5054542;28;20092;-77
2021/07/12 04:56:35;;;;;;;10.98;9.35;;;19.10;79.20;;;;;;5057559;28;20082;-77
2021/07/12 04:59:05;;;;;;;10.80;9.70;;;19.20;79.10;;;;;;5058021;28;20021;-78
2021/07/12 05:01:33;;;;;;;10.57;9.48;;;19.30;79.20;;;;;;5075820;28;20025;-77
2021/07/12 05:04:00;;;;;;;10.75;9.65;;;19.30;79.10;;;;;;5057925;28;20020;-77
2021/07/12 05:06:26;;;;;;;11.50;10.30;;;19.40;79.20;;;;;;5057954;28;20366;-77
2021/07/12 05:08:52;;;;;;;10.05;9.05;;;19.40;79.10;;;;;;5058068;28;20028;-77
2021/07/12 05:11:17;;;;;;;10.80;9.70;;;19.50;79.00;;;;;;5075655;28;20021;-77
2021/07/12 05:13:44;;;;;;;10.80;9.70;;;19.50;79.00;;;;;;5057756;28;20431;-77
2021/07/12 05:16:10;;;;;;;10.52;9.52;;;19.50;79.00;;;;;;5075753;28;20551;-77
2021/07/12 05:18:38;;;;;;;10.35;9.35;;;19.60;79.00;;;;;;5057693;28;20059;-77
2021/07/12 05:21:04;;;;;;;9.65;8.75;;;19.60;78.90;;;;;;5057768;28;20066;-78
2021/07/12 05:23:29;;;;;;;10.93;9.52;;;19.70;78.80;;;;;;5057425;28;20174;-78
2021/07/12 05:25:55;;;;;;;10.23;9.23;;;19.80;78.80;;;;;;5057579;28;20119;-78
2021/07/12 05:28:22;;;;;;;10.15;9.10;;;19.80;78.80;;;;;;5075494;28;20032;-78
2021/07/12 05:30:48;;;;;;;11.55;10.35;;;19.90;78.70;;;;;;5057805;28;20036;-77
2021/07/12 05:33:13;;;;;;;10.45;9.35;;;19.90;78.60;;;;;;5057393;28;20033;-77
2021/07/12 05:35:39;;;;;;;10.88;9.77;;;20.00;78.60;;;;;;5057363;28;20491;-78
2021/07/12 05:38:05;;;;;;;10.90;9.40;;;20.10;78.50;;;;;;5057472;28;20015;-78
2021/07/12 05:40:32;;;;;;;10.60;9.60;;;20.10;78.40;;;;;;5057315;28;20033;-79
2021/07/12 05:42:57;;;;;;;10.32;9.32;;;20.10;78.30;;;;;;5075317;28;20020;-77
2021/07/12 05:45:23;;;;;;;10.10;9.10;;;20.20;78.20;;;;;;5057241;28;20013;-77
2021/07/12 05:47:49;;;;;;;9.85;8.85;;;20.30;78.20;;;;;;5057183;28;20555;-77
2021/07/12 05:50:15;;;;;;;9.60;8.70;;;20.30;78.10;;;;;;5075075;28;20484;-77
2021/07/12 05:52:43;;;;;;;9.38;8.48;;;20.30;78.00;;;;;;5057069;28;20039;-78
2021/07/12 05:55:09;;;;;;;9.70;8.68;;;20.40;77.90;;;;;;5056798;28;20120;-79
2021/07/12 05:57:35;;;;;;;10.98;9.45;;;20.40;77.90;;;;;;5057155;28;20024;-77
2021/07/12 06:00:01;;;;;;;8.95;8.10;;;20.40;77.80;;;;;;5057018;28;20025;-76
2021/07/12 06:02:26;;;;;;;9.30;8.43;;;20.40;77.70;;;;;;5074767;28;20028;-72
2021/07/12 06:04:52;;;;;;;10.18;9.20;;;20.40;77.70;;;;;;5056731;28;20027;-73
2021/07/12 06:07:18;;;;;;;9.95;8.95;;;20.40;77.80;;;;;;5056493;28;20025;-73
2021/07/12 06:09:46;;;;;;;12.82;10.15;;;20.40;77.70;;;;;;5056861;28;20032;-78
2021/07/12 06:12:12;;;;;;;10.25;9.25;;;20.50;77.70;;;;;;5075041;28;20021;-74
2021/07/12 06:14:37;;;;;;;10.32;9.25;;;20.50;77.70;;;;;;5056491;28;20020;-75
2021/07/12 06:17:03;;;;;;;9.38;8.48;;;20.60;77.70;;;;;;5056539;28;20556;-74
2021/07/12 06:19:29;;;;;;;10.25;9.35;;;20.60;77.60;;;;;;5056562;28;20025;-77
2021/07/12 06:25:20;;;;;;;10.05;9.05;;;20.70;77.50;;;;;;5074117;28;20027;-74
2021/07/12 06:27:46;;;;;;;9.77;8.77;;;20.80;77.40;;;;;;5056382;28;20107;-73
2021/07/12 06:33:34;;;;;;;9.48;8.55;;;20.90;77.30;;;;;;5074652;28;20519;-73
2021/07/12 06:36:00;;;;;;;9.63;8.60;;;20.90;77.10;;;;;;5074633;28;20484;-74
2021/07/12 06:38:26;;;;;;;10.02;9.02;;;20.90;77.00;;;;;;5056381;28;20050;-76
2021/07/12 06:40:51;;;;;;;10.05;9.05;;;21.00;77.00;;;;;;5056457;28;20032;-72
2021/07/12 06:43:17;;;;;;;11.02;9.93;;;20.90;76.80;;;;;;5074051;28;20028;-72
2021/07/12 06:45:45;;;;;;;10.13;8.95;;;21.00;76.90;;;;;;5073883;28;20025;-74
2021/07/12 06:48:10;;;;;;;9.40;8.50;;;21.10;76.80;;;;;;5074197;28;20032;-72
2021/07/12 06:50:36;;;;;;;10.23;9.23;;;21.10;76.70;;;;;;5074000;28;20028;-73
2021/07/12 06:53:02;;;;;;;9.02;8.13;;;21.20;76.50;;;;;;5073905;28;20031;-74
2021/07/12 06:55:28;;;;;;;9.55;8.65;;;21.20;76.30;;;;;;5056294;28;20036;-72
2021/07/12 06:57:54;;;;;;;9.60;8.15;;;21.30;76.20;;;;;;5055912;28;20021;-73
2021/07/12 07:00:20;;;;;;;10.98;9.88;;;21.40;76.00;;;;;;5056509;28;20448;-72
2021/07/12 07:02:45;;;;;;;8.85;8.00;;;21.40;75.80;;;;;;5055797;28;20028;-72
2021/07/12 07:05:12;;;;;;;9.57;8.68;;;21.60;75.70;;;;;;5055925;28;20069;-72
2021/07/12 07:07:37;;;;;;;8.70;7.88;;;21.60;75.40;;;;;;5055822;28;20488;-72
2021/07/12 07:10:05;;;;;;;8.50;7.60;;;21.70;75.20;;;;;;5073564;28;20107;-72
2021/07/12 07:12:30;;;;;;;9.15;8.25;;;21.70;75.00;;;;;;5055786;28;20032;-72
2021/07/12 07:14:56;;;;;;;9.63;8.05;;;21.70;74.90;;;;;;5055749;28;20043;-73
2021/07/12 07:17:22;;;;;;;9.02;8.13;;;21.70;74.90;;;;;;5072905;28;20480;-72
2021/07/12 07:19:48;;;;;;;8.50;7.70;;;21.80;74.80;;;;;;5055814;28;20174;-73
2021/07/12 07:22:13;;;;;;;8.52;7.68;;;21.80;74.80;;;;;;5074059;28;20054;-77
2021/07/12 07:24:39;;;;;;;11.30;8.57;;;21.80;74.80;;;;;;5070187;28;20082;-76
2021/07/12 07:27:05;;;;;;;9.50;8.60;;;21.80;74.70;;;;;;5055654;28;20391;-74
2021/07/12 07:29:31;;;;;;;7.40;6.70;;;21.80;74.60;;;;;;5073544;28;20032;-74
2021/07/12 07:31:57;;;;;;;8.65;7.75;;;21.80;74.50;;;;;;5073659;28;20025;-74
2021/07/12 07:34:22;;;;;;;9.80;8.57;;;21.80;74.40;;;;;;5055845;28;20143;-75
2021/07/12 07:36:48;;;;;;;10.15;9.00;;;21.90;74.30;;;;;;5055927;28;20024;-75
2021/07/12 07:39:17;;;;;;;10.68;9.63;;;21.90;74.10;;;;;;5055636;28;20528;-75
2021/07/12 07:41:42;;;;;;;9.15;8.25;;;22.00;74.00;;;;;;5073317;28;20032;-73
2021/07/12 07:44:08;;;;;;;8.05;7.20;;;22.00;73.70;;;;;;5073549;28;20443;-74
2021/07/12 07:46:34;;;;;;;8.77;7.90;;;22.10;73.70;;;;;;5055448;28;20102;-74
2021/07/12 07:49:02;;;;;;;9.43;8.48;;;22.20;73.60;;;;;;5073431;28;20039;-76
2021/07/12 07:51:28;;;;;;;9.15;8.25;;;22.20;73.50;;;;;;5055322;28;20107;-74
2021/07/12 07:53:54;;;;;;;9.07;8.18;;;22.20;73.50;;;;;;5073012;28;20036;-75
2021/07/12 07:56:20;;;;;;;9.07;8.27;;;22.30;73.40;;;;;;5072936;28;20024;-74
2021/07/12 07:58:45;;;;;;;9.40;8.52;;;22.30;73.20;;;;;;5073101;28;20067;-74
2021/07/12 08:01:11;;;;;;;11.20;9.98;;;22.40;73.20;;;;;;5055528;28;20484;-75
2021/07/12 08:03:37;;;;;;;9.27;8.48;;;22.40;73.10;;;;;;5072942;28;20029;-75
2021/07/12 08:06:02;;;;;;;8.98;8.18;;;22.50;73.10;;;;;;5054909;28;20028;-77
2021/07/12 08:08:30;;;;;;;8.82;8.02;;;22.50;73.10;;;;;;5054867;28;20033;-75
2021/07/12 08:10:55;;;;;;;8.82;7.93;;;22.60;72.90;;;;;;5054993;28;20024;-73
2021/07/12 08:13:21;;;;;;;8.90;8.10;;;22.60;72.70;;;;;;5073011;28;20051;-73
2021/07/12 08:15:47;;;;;;;8.82;8.00;;;22.70;72.60;;;;;;5073134;28;20031;-73
2021/07/12 08:18:13;;;;;;;9.32;8.45;;;22.70;72.30;;;;;;5054925;28;20507;-73
2021/07/12 08:20:39;;;;;;;8.75;7.85;;;22.70;72.20;;;;;;5055192;28;20066;-74
2021/07/12 08:23:04;;;;;;;9.50;8.57;;;22.80;72.10;;;;;;5055041;28;20028;-73
2021/07/12 08:25:30;;;;;;;9.23;8.40;;;22.80;72.00;;;;;;5054965;28;20036;-79
2021/07/12 08:27:56;;;;;;;8.20;7.43;;;22.80;71.70;;;;;;5054633;28;20025;-78
2021/07/12 08:30:22;;;;;;;7.88;7.07;;;22.90;71.60;;;;;;5057692;28;20016;-80
2021/07/12 08:32:48;;;;;;;8.98;8.18;;;22.90;71.40;;;;;;5058680;28;20082;-80
2021/07/12 08:35:15;;;;;;;7.18;6.47;;;23.00;71.20;;;;;;5076466;28;20492;-77
2021/07/12 08:41:03;;;;;;;6.75;6.10;;;23.10;70.40;;;;;;5076775;28;20075;-72
2021/07/12 08:43:28;;;;;;;7.43;6.72;;;23.10;70.20;;;;;;5058780;28;20060;-74
2021/07/12 08:45:54;;;;;;;8.40;7.60;;;23.20;69.90;;;;;;5058228;28;20374;-73
2021/07/12 08:48:19;;;;;;;7.38;6.68;;;23.20;69.80;;;;;;5058339;28;20032;-74
2021/07/12 08:50:45;;;;;;;7.15;6.45;;;23.20;69.60;;;;;;5058584;28;20032;-73
2021/07/12 08:53:15;;;;;;;7.30;6.63;;;23.20;69.40;;;;;;5075970;28;20036;-72
2021/07/12 08:55:45;;;;;;;7.70;6.90;;;23.20;69.40;;;;;;5058142;28;20027;-72
2021/07/12 08:58:22;;;;;;;6.57;5.88;;;23.30;69.40;;;;;;5075991;28;20032;-74
2021/07/12 09:00:57;;;;;;;7.93;6.95;;;23.30;69.30;;;;;;5075964;28;20480;-71
2021/07/12 09:03:29;;;;;;;7.95;6.35;;;23.40;68.80;;;;;;5076201;28;20388;-76
2021/07/12 09:06:05;;;;;;;7.70;5.90;;;23.40;68.60;;;;;;5076006;28;20028;-73
2021/07/12 09:08:36;;;;;;;8.70;6.65;;;23.50;68.60;;;;;;5058079;28;20106;-75
2021/07/12 09:11:14;;;;;;;6.68;5.97;;;23.50;68.60;;;;;;5057944;28;20032;-75
2021/07/12 09:13:43;;;;;;;6.78;6.18;;;23.60;68.20;;;;;;5057850;28;20131;-73
2021/07/12 09:16:30;;;;;;;7.07;5.82;;;23.60;68.00;;;;;;5076013;28;20373;-73
2021/07/12 09:19:09;;;;;;;6.45;5.82;;;23.60;67.70;;;;;;5057887;28;20027;-75
2021/07/12 09:21:41;;;;;;;9.73;5.97;;;23.70;67.50;;;;;;5057717;28;20148;-75
2021/07/12 09:24:37;;;;;;;8.45;7.65;;;23.70;67.40;;;;;;5075481;28;20033;-77
2021/07/12 09:27:14;;;;;;;8.32;7.53;;;23.80;67.10;;;;;;5057763;28;20124;-76
2021/07/12 09:29:49;;;;;;;7.30;6.60;;;23.80;67.00;;;;;;5075676;28;20032;-74
2021/07/12 09:32:18;;;;;;;7.80;7.00;;;23.90;66.80;;;;;;5075524;28;20056;-76
2021/07/12 09:38:06;;;;;;;7.05;5.93;;;23.90;66.30;;;;;;5075671;28;20066;-77
2021/07/12 09:40:32;;;;;;;6.50;4.95;;;23.90;66.30;;;;;;5056752;28;20021;-75
2021/07/12 09:42:57;;;;;;;6.78;5.07;;;24.00;66.20;;;;;;5057435;28;20483;-76
2021/07/12 09:45:28;;;;;;;6.07;4.88;;;24.10;66.00;;;;;;5075585;28;20041;-77
2021/07/12 09:47:53;;;;;;;7.05;5.40;;;24.10;65.70;;;;;;5057438;28;20378;-80
2021/07/12 09:50:24;;;;;;;7.35;6.38;;;24.10;65.50;;;;;;5057614;28;20123;-81
2021/07/12 09:53:09;;;;;;;7.13;6.13;;;24.10;65.20;;;;;;5057441;28;20036;-82
2021/07/12 09:55:41;;;;;;;5.85;5.30;;;24.20;65.00;;;;;;5057565;28;20055;-75
2021/07/12 09:58:08;;;;;;;6.70;6.03;;;24.30;64.90;;;;;;5075409;28;20021;-75
2021/07/12 10:00:34;;;;;;;8.25;6.22;;;24.30;64.70;;;;;;5056986;28;20032;-78
2021/07/12 10:03:00;;;;;;;6.80;6.20;;;24.50;64.20;;;;;;5075030;28;20119;-76
2021/07/12 10:05:26;;;;;;;7.60;6.38;;;24.50;64.10;;;;;;5056882;28;20033;-76
2021/07/12 10:07:53;;;;;;;6.82;6.00;;;24.50;63.90;;;;;;5075557;28;20035;-86
2021/07/12 10:10:19;;;;;;;5.25;4.75;;;24.50;63.70;;;;;;5057512;28;20038;-80
2021/07/12 10:12:45;;;;;;;5.68;5.18;;;24.70;63.50;;;;;;5057681;28;20025;-82
2021/07/12 10:15:15;;;;;;;6.22;5.03;;;24.80;63.30;;;;;;5058468;28;20543;-83
2021/07/12 10:17:43;;;;;;;5.85;5.25;;;24.90;63.10;;;;;;5075972;28;20033;-85
2021/07/12 10:20:11;;;;;;;5.00;4.50;;;25.00;62.80;;;;;;5057423;28;20120;-87
2021/07/12 10:22:39;;;;;;;4.68;4.28;;;25.10;62.40;;;;;;5057219;28;20115;-85
2021/07/12 10:25:14;;;;;;;4.70;3.85;;;25.20;61.90;;;;;;5075284;28;20068;-85
2021/07/12 10:27:50;;;;;;;4.70;4.30;;;25.20;61.80;;;;;;5057268;28;20051;-84
2021/07/12 10:30:24;;;;;;;6.53;5.90;;;25.20;61.60;;;;;;5074819;28;20039;-85
2021/07/12 10:32:53;;;;;;;5.97;5.38;;;25.20;61.40;;;;;;5074613;28;20387;-81
2021/07/12 10:35:42;;;;;;;5.60;5.00;;;25.20;60.90;;;;;;5056658;28;20036;-82
2021/07/12 10:38:36;;;;;;;4.93;4.50;;;25.10;60.90;;;;;;5056653;28;20111;-84
2021/07/12 10:41:18;;;;;;;4.90;4.50;;;25.10;61.10;;;;;;5056311;28;20407;-80
2021/07/12 10:43:47;;;;;;;4.70;4.22;;;25.20;61.10;;;;;;5075247;28;20032;-82
2021/07/12 10:46:28;;;;;;;4.13;3.72;;;25.30;61.00;;;;;;5056477;28;20075;-83
2021/07/12 10:49:06;;;;;;;4.95;4.45;;;25.40;60.60;;;;;;5074724;28;20039;-84
2021/07/12 10:51:37;;;;;;;5.18;4.68;;;25.40;60.40;;;;;;5056608;28;20035;-82
2021/07/12 10:54:09;;;;;;;5.45;4.95;;;25.40;60.10;;;;;;5073369;28;20050;-80
2021/07/12 11:00:08;;;;;;;5.47;4.28;;;25.50;59.90;;;;;;5081194;28;20027;-87
2021/07/12 11:02:33;;;;;;;5.30;4.80;;;25.60;59.70;;;;;;5062052;28;20427;-87
2021/07/12 11:05:20;;;;;;;20.83;5.55;;;25.60;59.60;;;;;;5059218;28;20036;-86
2021/07/12 11:07:50;;;;;;;5.47;4.82;;;25.50;59.50;;;;;;5056988;28;20118;-86
2021/07/12 11:10:25;;;;;;;4.38;3.97;;;25.50;59.40;;;;;;5057826;28;20167;-84
2021/07/12 11:12:59;;;;;;;4.57;4.18;;;25.50;59.20;;;;;;5057682;28;20127;-87
2021/07/12 11:15:27;;;;;;;6.47;4.22;;;25.50;59.20;;;;;;5058342;28;20171;-82
2021/07/12 11:18:07;;;;;;;4.65;4.20;;;25.60;59.30;;;;;;5076324;28;20024;-88
2021/07/12 11:20:57;;;;;;;4.15;3.75;;;25.70;59.10;;;;;;5058942;28;20503;-89
2021/07/12 11:23:47;;;;;;;4.75;4.30;;;25.90;58.90;;;;;;5058975;28;20040;-88
2021/07/12 11:26:23;;;;;;;6.78;4.57;;;26.00;58.70;;;;;;5059161;28;20446;-88
2021/07/12 11:28:51;;;;;;;4.28;3.97;;;26.00;58.40;;;;;;5059374;28;20024;-85
2021/07/12 11:31:39;;;;;;;4.50;4.10;;;26.10;58.30;;;;;;5059257;28;20081;-87
2021/07/12 11:34:27;;;;;;;6.13;3.80;;;26.00;58.10;;;;;;5059231;28;20076;-86
2021/07/12 11:37:14;;;;;;;5.22;4.30;;;26.00;58.00;;;;;;5060803;28;20484;-87
2021/07/12 11:39:44;;;;;;;4.93;4.53;;;26.10;58.00;;;;;;5058833;28;20070;-88
2021/07/12 11:42:14;;;;;;;4.80;4.40;;;26.00;58.00;;;;;;5059533;28;20039;-87
2021/07/12 11:45:05;;;;;;;4.50;4.10;;;26.10;57.90;;;;;;5059711;28;20515;-87
2021/07/12 11:47:40;;;;;;;4.40;4.00;;;26.10;57.80;;;;;;5060373;28;20322;-87
2021/07/12 11:50:10;;;;;;;4.72;3.90;;;26.10;57.80;;;;;;5060271;28;20033;-84
2021/07/12 11:52:42;;;;;;;5.30;4.00;;;26.10;57.90;;;;;;5078272;28;20079;-88
2021/07/12 11:55:11;;;;;;;5.10;4.68;;;26.10;57.70;;;;;;5062834;28;20492;-87
2021/07/12 11:57:38;;;;;;;4.30;3.90;;;26.10;57.80;;;;;;5062553;28;20063;-89
2021/07/12 12:00:08;;;;;;;4.00;3.70;;;26.10;57.70;;;;;;5064492;28;20033;-88
2021/07/12 12:02:34;;;;;;;4.05;3.65;;;26.10;57.70;;;;;;5062494;28;20365;-86
2021/07/12 12:05:01;;;;;;;4.60;4.20;;;26.10;57.70;;;;;;5080365;28;20035;-86
2021/07/12 12:07:30;;;;;;;4.18;3.42;;;26.20;57.40;;;;;;5063183;28;20025;-85
2021/07/12 12:10:07;;;;;;;4.07;3.70;;;26.30;57.40;;;;;;5062964;28;20059;-86
2021/07/12 12:12:42;;;;;;;3.58;3.25;;;26.30;57.20;;;;;;5066407;28;20020;-87
2021/07/12 12:15:29;;;;;;;4.70;4.18;;;26.30;57.30;;;;;;5061852;28;20036;-88
2021/07/12 12:17:58;;;;;;;4.45;4.05;;;26.40;57.40;;;;;;5060053;28;20051;-85
2021/07/12 12:20:39;;;;;;;4.43;4.03;;;26.30;57.20;;;;;;5059166;28;20029;-88
2021/07/12 12:23:28;;;;;;;4.57;4.18;;;26.30;57.20;;;;;;5077555;28;20017;-88
2021/07/12 12:26:00;;;;;;;4.40;4.00;;;26.30;57.20;;;;;;5059442;28;20028;-87
2021/07/12 12:28:35;;;;;;;3.60;3.30;;;26.30;57.20;;;;;;5059848;28;20436;-88
2021/07/12 12:31:11;;;;;;;4.93;4.40;;;26.30;57.20;;;;;;5058109;28;20059;-88
2021/07/12 12:33:40;;;;;;;4.22;3.83;;;26.30;57.00;;;;;;5058015;28;20032;-88
2021/07/12 12:36:12;;;;;;;4.30;3.90;;;26.30;57.10;;;;;;5058642;28;20032;-87
2021/07/12 12:38:53;;;;;;;4.22;3.75;;;26.20;57.00;;;;;;5075959;28;20097;-90
2021/07/12 12:41:21;;;;;;;4.63;4.15;;;26.20;57.20;;;;;;5061294;28;20035;-89
2021/07/12 12:44:06;;;;;;;4.70;3.83;;;26.10;57.10;;;;;;5061891;28;20037;-89
2021/07/12 12:46:46;;;;;;;4.13;3.72;;;26.10;57.30;;;;;;5083146;28;20098;-89
2021/07/12 12:49:17;;;;;;;4.32;3.92;;;26.10;57.40;;;;;;5064929;28;20032;-88
2021/07/12 12:52:05;;;;;;;4.10;3.80;;;26.00;57.40;;;;;;5063912;28;20033;-89
2021/07/12 12:54:33;;;;;;;3.92;3.63;;;26.00;57.40;;;;;;5060861;28;20036;-88
2021/07/12 12:57:01;;;;;;;3.75;3.45;;;26.00;57.50;;;;;;5058607;28;20025;-88
2021/07/12 12:59:35;;;;;;;4.00;3.60;;;26.10;57.50;;;;;;5061505;28;20060;-88
2021/07/12 13:02:11;;;;;;;3.78;3.47;;;26.10;57.50;;;;;;5060857;28;20092;-87
2021/07/12 13:04:55;;;;;;;3.83;3.53;;;26.20;57.50;;;;;;5058598;28;20128;-88
2021/07/12 13:07:26;;;;;;;3.78;3.47;;;26.20;57.40;;;;;;5076263;28;20511;-90
2021/07/12 13:10:10;;;;;;;3.80;3.50;;;26.10;57.40;;;;;;5057063;28;20029;-89
2021/07/12 13:12:49;;;;;;;3.67;3.38;;;26.20;57.40;;;;;;5057994;28;20072;-86
2021/07/12 13:15:17;;;;;;;3.88;3.58;;;26.10;57.40;;;;;;5059049;28;20399;-89
2021/07/12 13:17:44;;;;;;;4.25;3.83;;;26.00;57.50;;;;;;5064656;28;20091;-90
2021/07/12 13:23:58;;;;;;;3.80;3.00;;;25.90;57.70;;;;;;5083606;28;20046;-91
2021/07/12 13:26:27;;;;;;;3.58;3.28;;;25.90;57.80;;;;;;5084408;28;20028;-90